Terminal Aerodrome Forecast
Issued by NWS Omaha/Valley, NE

Home | Current Version | Previous Version | Text Only | Print | Product List | Glossary On
Versions: 1 2 3 4 5 6 7 8 9 10 11 12 13 14
000
FTUS43 KOAX 292346
TAFOFK
TAF
KOFK 292346Z 3000/3024 17005KT P6SM VCTS OVC200CB
      TEMPO 3002/3004 VRB15G20KT 3SM -TSRA BKN040CB
     FM300600 VRB03KT P6SM OVC100
     FM300900 VRB02KT P6SM VCSH SCT015 OVC050
     FM302200 11006KT P6SM OVC050=

USA.gov is the U.S. government's official web portal to all federal, state and local government web resources and services.